This is the latest recevied weather packets stored in our database for station/object DM0MR. If no packets are shown the sender has not sent any weather packets the latest 10 day(s).
| Time | Temp. | Humidity | Pressure | Rain* | Wind** | Luminosity | Snow |
|---|---|---|---|---|---|---|---|
| 1777668092 | 16.11° C | 54% | 1014.9 hPa | 0 mm | - | - | - |
| 1777667194 | 15.56° C | 56% | 1014.8 hPa | 0 mm | - | - | - |
| 1777666292 | 15.56° C | 55% | 1014.8 hPa | 0 mm | - | - | - |
| 1777663591 | 17.78° C | 48% | 1014.9 hPa | 0 mm | - | - | - |
| 1777662693 | 17.78° C | 48% | 1014.9 hPa | 0 mm | - | - | - |
| 1777661792 | 17.78° C | 48% | 1014.9 hPa | 0 mm | - | - | - |
| 1777659992 | 18.89° C | 45% | 1014.9 hPa | 0 mm | - | - | - |
| 1777659093 | 19.44° C | 44% | 1014.8 hPa | 0 mm | - | - | - |
| 1777658192 | 20° C | 42% | 1014.8 hPa | 0 mm | - | - | - |
| 1777657292 | 20° C | 40% | 1014.8 hPa | 0 mm | - | - | - |
| 1777655493 | 20.56° C | 38% | 1015.1 hPa | 0 mm | - | - | - |
| 1777654591 | 20.56° C | 37% | 1015.2 hPa | 0 mm | - | - | - |
| 1777653693 | 21.11° C | 35% | 1015.4 hPa | 0 mm | - | - | - |
| 1777652793 | 21.11° C | 34% | 1015.5 hPa | 0 mm | - | - | - |
| 1777650993 | 23.33° C | 33% | 1015.6 hPa | 0 mm | - | - | - |
| 1777650092 | 21.67° C | 35% | 1016 hPa | 0 mm | - | - | - |
| 1777649192 | 21.67° C | 34% | 1016 hPa | 0 mm | - | - | - |
| 1777648291 | 21.67° C | 34% | 1016.2 hPa | 0 mm | - | - | - |
| 1777647392 | 22.78° C | 32% | 1016.3 hPa | 0 mm | - | - | - |
| 1777646492 | 23.89° C | 33% | 1016.4 hPa | 0 mm | - | - | - |
| 1777645593 | 24.44° C | 33% | 1016.6 hPa | 0 mm | - | - | - |
| 1777644692 | 23.89° C | 31% | 1016.6 hPa | 0 mm | - | - | - |
| 1777643791 | 24.44° C | 32% | 1016.7 hPa | 0 mm | - | - | - |
| 1777642892 | 23.89° C | 30% | 1016.9 hPa | 0 mm | - | - | - |
| 1777641992 | 23.33° C | 32% | 1016.9 hPa | 0 mm | - | - | - |
* Rain latest hour (hover to see other rain measurements)
** Current wind speed in m/s (hover to see current wind gust speed)